Terminal Aerodrome Forecast
Issued by NWS Central Illinois

Home | Current Version | Previous Version | Text Only | Print | Product List | Glossary On
Versions: 1 2 3 4 5 6 7 8 9 10 11 12 13 14 15 16 17 18 19 20 21 22 23
000
FTUS43 KILX 291700
TAFPIA
TAF
KPIA 291737Z 2918/3018 31014G22KT P6SM OVC020
      TEMPO 2920/2922 4SM -DZ HZ OVC015
     FM300300 32009KT P6SM OVC025
     FM301000 35007KT P6SM BKN030
     FM301500 02005KT P6SM SCT035 BKN100=

USA.gov is the U.S. government's official web portal to all federal, state and local government web resources and services.